TimeMST,TemperatureF,Dew PointF,Humidity,Sea Level PressureIn,VisibilityMPH,Wind Direction,Wind SpeedMPH,Gust SpeedMPH,PrecipitationIn,Events,Conditions,WindDirDegrees,DateUTC
12:53 AM,12.0,7.0,80,29.95,10.0,West,9.2,-,N/A,,Clear,280,2013-02-26 07:53:00
1:53 AM,10.0,5.0,80,29.94,10.0,West,5.8,-,N/A,,Clear,280,2013-02-26 08:53:00
2:53 AM,9.0,3.0,77,29.93,10.0,West,8.1,-,N/A,,Clear,270,2013-02-26 09:53:00
3:53 AM,12.0,5.0,73,29.91,10.0,West,10.4,-,N/A,,Clear,270,2013-02-26 10:53:00
4:53 AM,15.1,6.1,68,29.89,10.0,West,13.8,-,N/A,,Clear,270,2013-02-26 11:53:00
5:53 AM,18.0,9.0,68,29.92,10.0,West,16.1,-,N/A,,Clear,280,2013-02-26 12:53:00
6:53 AM,19.0,12.0,74,29.94,10.0,NW,10.4,-,N/A,,Clear,310,2013-02-26 13:53:00
7:53 AM,24.1,17.1,75,29.94,10.0,NW,10.4,-,N/A,,Clear,310,2013-02-26 14:53:00
8:53 AM,30.0,21.0,69,29.92,10.0,NNW,16.1,-,N/A,,Clear,330,2013-02-26 15:53:00
9:53 AM,32.0,21.9,66,29.90,10.0,NW,19.6,-,N/A,,Clear,320,2013-02-26 16:53:00
10:53 AM,32.0,21.9,66,29.93,10.0,NNW,24.2,-,N/A,,Clear,340,2013-02-26 17:53:00
11:53 AM,33.1,23.0,66,29.92,10.0,North,20.7,-,N/A,,Clear,350,2013-02-26 18:53:00
12:53 PM,35.1,23.0,61,29.91,10.0,North,20.7,-,N/A,,Clear,10,2013-02-26 19:53:00
1:53 PM,35.1,19.9,54,29.93,10.0,NNE,16.1,24.2,N/A,,Clear,20,2013-02-26 20:53:00
2:53 PM,36.0,18.0,48,29.94,10.0,NNE,11.5,-,N/A,,Clear,30,2013-02-26 21:53:00
3:53 PM,37.0,23.0,57,29.94,10.0,North,18.4,24.2,N/A,,Scattered Clouds,350,2013-02-26 22:53:00
4:53 PM,33.1,21.9,64,29.97,10.0,North,15.0,-,N/A,,Clear,360,2013-02-26 23:53:00
5:53 PM,33.1,27.0,78,30.00,10.0,NNW,17.3,-,N/A,,Overcast,330,2013-02-27 00:53:00
6:53 PM,30.9,27.0,85,30.04,10.0,NNW,19.6,27.6,N/A,,Partly Cloudy,330,2013-02-27 01:53:00
7:53 PM,30.0,26.1,85,30.07,10.0,NNW,21.9,-,N/A,,Overcast,340,2013-02-27 02:53:00
8:53 PM,28.9,25.0,85,30.08,10.0,NNW,17.3,-,N/A,,Clear,340,2013-02-27 03:53:00
9:28 PM,30.2,24.8,80,30.01,10.0,North,17.3,-,N/A,,Mostly Cloudy,360,2013-02-27 04:28:00
9:53 PM,30.0,26.1,85,30.09,10.0,NNW,15.0,-,N/A,,Overcast,330,2013-02-27 04:53:00
10:53 PM,30.0,26.1,85,30.11,10.0,NNW,19.6,-,N/A,,Overcast,330,2013-02-27 05:53:00
11:53 PM,30.0,25.0,82,30.12,10.0,NNW,20.7,27.6,N/A,,Overcast,340,2013-02-27 06:53:00